Time;durP1;ratioP1;P1;durP2;ratioP2;P2;SDS_P1;SDS_P2;PMS_P1;PMS_P2;Temp;Humidity;BMP_temperature;BMP_pressure;BME280_temperature;BME280_humidity;BME280_pressure;Samples;Min_cycle;Max_cycle;Signal;HPM_P1;HPM_P2
2021/10/26 00:01:39;;;;;;;12.98;5.97;;;10.90;85.10;;;;;;4966536;28;20050;-84
2021/10/26 00:04:07;;;;;;;12.73;5.82;;;10.90;85.10;;;;;;4966520;28;20122;-84
2021/10/26 00:06:35;;;;;;;14.05;6.20;;;10.90;85.10;;;;;;4966937;28;20121;-85
2021/10/26 00:09:04;;;;;;;10.23;5.88;;;10.90;85.00;;;;;;4955623;28;20516;-85
2021/10/26 00:11:32;;;;;;;10.77;6.00;;;10.90;85.00;;;;;;4968831;28;20135;-84
2021/10/26 00:13:59;;;;;;;12.90;5.60;;;10.90;85.00;;;;;;4966517;28;20050;-85
2021/10/26 00:16:27;;;;;;;11.23;5.57;;;10.90;85.00;;;;;;4966416;28;20059;-85
2021/10/26 00:18:55;;;;;;;10.45;5.75;;;10.90;85.00;;;;;;4966378;28;20047;-84
2021/10/26 00:21:22;;;;;;;10.60;5.60;;;10.80;85.00;;;;;;4968218;28;20511;-87
2021/10/26 00:23:49;;;;;;;11.05;5.60;;;10.80;85.00;;;;;;4969118;28;20043;-85
2021/10/26 00:26:15;;;;;;;12.50;5.82;;;10.80;84.90;;;;;;4968105;28;20055;-86
2021/10/26 00:28:42;;;;;;;11.55;5.30;;;10.70;84.90;;;;;;4966034;28;20054;-85
2021/10/26 00:31:10;;;;;;;11.20;5.25;;;10.70;84.80;;;;;;4964754;28;20392;-85
2021/10/26 00:33:37;;;;;;;11.63;5.22;;;10.70;84.80;;;;;;4966393;28;20047;-85
2021/10/26 00:36:04;;;;;;;11.20;5.50;;;10.70;84.80;;;;;;4970405;28;20131;-85
2021/10/26 00:38:31;;;;;;;10.55;5.57;;;10.70;84.80;;;;;;4968422;28;20431;-86
2021/10/26 00:40:59;;;;;;;13.40;6.05;;;10.70;84.80;;;;;;4964208;28;20058;-85
2021/10/26 00:43:26;;;;;;;12.48;5.38;;;10.60;84.70;;;;;;4966007;28;20086;-85
2021/10/26 00:45:53;;;;;;;9.70;5.40;;;10.60;84.70;;;;;;4966146;28;20118;-85
2021/10/26 00:48:20;;;;;;;12.82;5.57;;;10.60;84.70;;;;;;4972435;28;20515;-84
2021/10/26 00:50:48;;;;;;;8.80;5.40;;;10.60;84.70;;;;;;4960054;28;20445;-86
2021/10/26 00:53:17;;;;;;;8.80;5.60;;;10.60;84.70;;;;;;4972491;28;20042;-86
2021/10/26 00:55:46;;;;;;;9.88;5.00;;;10.50;84.70;;;;;;4972154;28;20093;-86
2021/10/26 00:58:13;;;;;;;14.90;5.10;;;10.50;84.60;;;;;;4972420;28;20058;-86
2021/10/26 01:00:40;;;;;;;8.75;5.20;;;10.50;84.60;;;;;;4972379;28;20040;-86
2021/10/26 01:03:07;;;;;;;11.10;5.65;;;10.50;84.60;;;;;;4976177;28;20086;-86
2021/10/26 01:05:34;;;;;;;11.88;5.78;;;10.40;84.50;;;;;;4974700;28;20046;-85
2021/10/26 01:08:02;;;;;;;10.82;5.50;;;10.40;84.60;;;;;;4966522;28;20059;-84
2021/10/26 01:10:29;;;;;;;7.78;5.32;;;10.40;84.60;;;;;;4968229;28;20062;-86
2021/10/26 01:12:56;;;;;;;12.27;5.88;;;10.40;84.50;;;;;;4972119;28;20050;-85
2021/10/26 01:15:23;;;;;;;12.70;5.85;;;10.40;84.60;;;;;;4973974;28;20107;-85
2021/10/26 01:17:50;;;;;;;12.52;5.80;;;10.40;84.60;;;;;;4975207;28;20638;-86
2021/10/26 01:20:17;;;;;;;9.95;5.63;;;10.40;84.60;;;;;;4973969;28;20105;-86
2021/10/26 01:22:44;;;;;;;10.65;5.75;;;10.40;84.60;;;;;;4972058;28;20047;-86
2021/10/26 01:25:12;;;;;;;10.65;5.35;;;10.40;84.60;;;;;;4971782;28;20055;-86
2021/10/26 01:27:46;;;;;;;14.98;5.57;;;10.30;84.50;;;;;;4972172;28;20079;-86
2021/10/26 01:30:14;;;;;;;11.05;5.53;;;10.30;84.50;;;;;;4973507;28;20504;-86
2021/10/26 01:32:42;;;;;;;12.75;5.20;;;10.30;84.60;;;;;;4974810;28;20058;-86
2021/10/26 01:35:09;;;;;;;11.48;5.78;;;10.30;84.60;;;;;;4973227;28;20058;-86
2021/10/26 01:37:37;;;;;;;12.65;5.68;;;10.20;84.50;;;;;;4972242;28;20058;-85
2021/10/26 01:40:04;;;;;;;11.60;5.95;;;10.30;84.60;;;;;;4971687;28;20047;-85
2021/10/26 01:42:31;;;;;;;12.30;5.40;;;10.20;84.60;;;;;;4970548;28;20051;-85
2021/10/26 01:44:58;;;;;;;12.95;5.45;;;10.20;84.60;;;;;;4975957;28;20101;-87
2021/10/26 01:47:25;;;;;;;13.77;5.78;;;10.20;84.60;;;;;;4973695;28;20047;-86
2021/10/26 01:49:52;;;;;;;13.93;5.85;;;10.20;84.60;;;;;;4970443;28;20055;-87
2021/10/26 01:52:19;;;;;;;9.82;5.40;;;10.20;84.60;;;;;;4971781;28;20047;-86
2021/10/26 01:54:46;;;;;;;12.93;5.95;;;10.20;84.70;;;;;;4971536;28;20111;-86
2021/10/26 01:57:19;;;;;;;14.68;5.40;;;10.20;84.70;;;;;;4974918;28;20055;-86
2021/10/26 01:59:47;;;;;;;10.38;5.63;;;10.20;84.80;;;;;;4971261;28;20094;-86
2021/10/26 02:02:14;;;;;;;11.63;5.30;;;10.20;84.80;;;;;;4973058;28;20055;-85
2021/10/26 02:04:41;;;;;;;12.52;5.68;;;10.20;84.80;;;;;;4973032;28;20415;-85
2021/10/26 02:07:08;;;;;;;14.45;5.80;;;10.20;84.80;;;;;;4968673;28;20047;-86
2021/10/26 02:09:35;;;;;;;12.50;5.80;;;10.20;84.80;;;;;;4966718;28;20047;-86
2021/10/26 02:12:04;;;;;;;13.00;5.95;;;10.20;84.90;;;;;;4973032;28;20055;-85
2021/10/26 02:14:32;;;;;;;13.18;5.00;;;10.30;84.90;;;;;;4970841;28;20656;-84
2021/10/26 02:17:00;;;;;;;13.18;5.78;;;10.30;84.90;;;;;;4961765;28;20586;-85
2021/10/26 02:19:27;;;;;;;13.88;5.75;;;10.30;84.90;;;;;;4964497;28;20062;-86
2021/10/26 02:21:54;;;;;;;15.63;6.32;;;10.30;84.90;;;;;;4968296;28;20839;-86
2021/10/26 02:24:21;;;;;;;12.65;5.07;;;10.30;84.90;;;;;;4970011;28;20054;-87
2021/10/26 02:26:49;;;;;;;12.07;4.85;;;10.30;84.90;;;;;;4971605;28;20061;-87
2021/10/26 02:29:16;;;;;;;13.60;5.15;;;10.30;84.90;;;;;;4968760;28;20054;-86
2021/10/26 02:31:44;;;;;;;11.52;5.60;;;10.30;84.90;;;;;;4968353;28;20089;-86
2021/10/26 02:34:11;;;;;;;13.90;5.40;;;10.30;84.90;;;;;;4966260;28;20051;-86
2021/10/26 02:36:38;;;;;;;14.05;5.13;;;10.30;84.90;;;;;;4968439;28;20051;-86
2021/10/26 02:39:06;;;;;;;12.45;5.00;;;10.30;84.90;;;;;;4971852;28;20047;-86
2021/10/26 02:41:33;;;;;;;12.45;5.50;;;10.30;84.90;;;;;;4970282;28;20047;-85
2021/10/26 02:44:00;;;;;;;15.93;5.35;;;10.30;84.90;;;;;;4967024;28;20086;-85
2021/10/26 02:46:27;;;;;;;11.02;5.25;;;10.30;84.80;;;;;;4967082;28;20112;-86
2021/10/26 02:48:54;;;;;;;15.25;5.07;;;10.30;84.90;;;;;;4966326;28;20558;-85
2021/10/26 02:51:21;;;;;;;15.07;5.32;;;10.30;84.90;;;;;;4969407;28;20047;-86
2021/10/26 02:53:48;;;;;;;9.93;5.00;;;10.40;84.90;;;;;;4970805;28;20463;-85
2021/10/26 02:56:15;;;;;;;11.23;4.68;;;10.30;84.80;;;;;;4969661;28;20058;-85
2021/10/26 02:58:42;;;;;;;11.55;5.22;;;10.30;84.80;;;;;;4967813;28;20054;-87
2021/10/26 03:01:10;;;;;;;13.05;5.25;;;10.30;84.80;;;;;;4967639;28;20427;-86
2021/10/26 03:03:38;;;;;;;11.35;4.78;;;10.30;84.80;;;;;;4967620;28;20123;-86
2021/10/26 03:06:06;;;;;;;12.27;5.45;;;10.30;84.80;;;;;;4969571;28;20046;-85
2021/10/26 03:08:33;;;;;;;14.73;5.38;;;10.30;84.80;;;;;;4969843;28;20050;-86
2021/10/26 03:10:59;;;;;;;14.90;5.18;;;10.30;84.70;;;;;;4965011;28;20062;-85
2021/10/26 03:13:27;;;;;;;12.30;5.25;;;10.30;84.70;;;;;;4967399;28;20058;-87
2021/10/26 03:15:53;;;;;;;14.55;4.97;;;10.30;84.70;;;;;;4967489;28;20051;-87
2021/10/26 03:18:20;;;;;;;11.88;5.18;;;10.30;84.70;;;;;;4971762;28;20043;-86
2021/10/26 03:20:48;;;;;;;9.77;5.05;;;10.20;84.70;;;;;;4956303;28;20047;-86
2021/10/26 03:23:15;;;;;;;9.95;5.40;;;10.30;84.70;;;;;;4967565;28;20050;-85
2021/10/26 03:25:41;;;;;;;13.50;5.50;;;10.20;84.70;;;;;;4967337;28;20109;-86
2021/10/26 03:28:10;;;;;;;15.13;5.50;;;10.20;84.70;;;;;;4965450;28;20054;-85
2021/10/26 03:30:38;;;;;;;15.07;5.70;;;10.20;84.70;;;;;;4967260;28;20047;-86
2021/10/26 03:33:04;;;;;;;15.02;5.93;;;10.20;84.60;;;;;;4971250;28;20054;-85
2021/10/26 03:35:31;;;;;;;16.85;5.97;;;10.20;84.70;;;;;;4968997;28;20051;-87
2021/10/26 03:38:00;;;;;;;14.02;5.68;;;10.20;84.70;;;;;;4967490;28;20050;-87
2021/10/26 03:40:27;;;;;;;14.23;5.60;;;10.20;84.70;;;;;;4967007;28;20507;-86
2021/10/26 03:42:54;;;;;;;10.13;5.45;;;10.20;84.70;;;;;;4966855;28;20050;-86
2021/10/26 03:45:21;;;;;;;15.23;5.60;;;10.20;84.70;;;;;;4967146;28;20116;-86
2021/10/26 03:47:48;;;;;;;16.48;5.57;;;10.20;84.70;;;;;;4969774;28;20047;-86
2021/10/26 03:50:15;;;;;;;11.85;5.93;;;10.20;84.70;;;;;;4968515;28;20054;-86
2021/10/26 03:52:43;;;;;;;12.38;5.82;;;10.20;84.60;;;;;;4966845;28;20051;-85
2021/10/26 03:55:11;;;;;;;14.20;6.30;;;10.20;84.70;;;;;;4966860;28;20050;-85
2021/10/26 03:57:38;;;;;;;17.45;5.68;;;10.20;84.60;;;;;;4970520;28;20047;-87
2021/10/26 04:00:06;;;;;;;12.38;5.78;;;10.20;84.60;;;;;;4954603;28;20049;-87
2021/10/26 04:02:34;;;;;;;15.32;5.80;;;10.20;84.60;;;;;;4968925;28;20077;-87
2021/10/26 04:05:06;;;;;;;15.82;5.72;;;10.20;84.60;;;;;;4967474;28;20105;-86
2021/10/26 04:07:34;;;;;;;16.77;5.90;;;10.10;84.60;;;;;;4964890;28;20051;-86
2021/10/26 04:10:05;;;;;;;15.70;5.65;;;10.20;84.60;;;;;;4966538;28;20566;-86
2021/10/26 04:12:32;;;;;;;12.98;5.80;;;10.10;84.60;;;;;;4966935;28;20047;-86
2021/10/26 04:14:59;;;;;;;13.02;6.55;;;10.10;84.60;;;;;;4968631;28;20051;-87
2021/10/26 04:17:27;;;;;;;14.02;6.03;;;10.10;84.60;;;;;;4968035;28;20097;-86
2021/10/26 04:19:57;;;;;;;13.63;6.30;;;10.10;84.60;;;;;;4966115;28;20061;-86
2021/10/26 04:22:24;;;;;;;13.82;6.15;;;10.00;84.60;;;;;;4965458;28;20058;-85
2021/10/26 04:24:52;;;;;;;13.15;6.40;;;10.10;84.60;;;;;;4964866;28;20047;-86
2021/10/26 04:27:19;;;;;;;14.50;6.22;;;10.10;84.60;;;;;;4968354;28;20043;-86
2021/10/26 04:29:46;;;;;;;9.10;5.88;;;10.00;84.60;;;;;;4968922;28;20047;-86
2021/10/26 04:32:16;;;;;;;17.90;6.20;;;10.00;84.60;;;;;;4957349;28;20055;-87
2021/10/26 04:34:43;;;;;;;12.50;6.20;;;10.00;84.60;;;;;;4962546;28;20055;-86
2021/10/26 04:37:10;;;;;;;12.48;6.30;;;10.00;84.60;;;;;;4966267;28;20061;-86
2021/10/26 04:39:42;;;;;;;13.95;5.90;;;10.00;84.60;;;;;;4966104;28;20085;-86
2021/10/26 04:42:09;;;;;;;11.23;5.85;;;10.00;84.60;;;;;;4969565;28;20412;-86
2021/10/26 04:44:37;;;;;;;10.35;6.70;;;10.00;84.60;;;;;;4968230;28;20055;-86
2021/10/26 04:47:05;;;;;;;18.02;7.43;;;10.00;84.60;;;;;;4959197;28;20058;-85
2021/10/26 04:49:32;;;;;;;15.07;6.28;;;10.00;84.60;;;;;;4961070;28;20570;-87
2021/10/26 04:52:01;;;;;;;12.48;7.13;;;10.00;84.60;;;;;;4966059;28;20082;-86
2021/10/26 04:54:29;;;;;;;13.05;7.20;;;10.00;84.60;;;;;;4966983;28;20098;-85
2021/10/26 04:56:56;;;;;;;11.95;7.32;;;9.90;84.60;;;;;;4970036;28;20447;-86
2021/10/26 04:59:23;;;;;;;14.20;7.13;;;10.00;84.60;;;;;;4967918;28;20050;-85
2021/10/26 05:01:50;;;;;;;22.42;8.18;;;9.90;84.60;;;;;;4965463;28;20054;-85
2021/10/26 05:04:17;;;;;;;18.30;7.85;;;9.90;84.60;;;;;;4964428;28;20050;-86
2021/10/26 05:06:44;;;;;;;16.30;8.35;;;9.90;84.60;;;;;;4966054;28;20054;-86
2021/10/26 05:09:11;;;;;;;19.10;8.32;;;9.90;84.60;;;;;;4969186;28;20054;-87
2021/10/26 05:11:38;;;;;;;17.63;8.25;;;9.90;84.60;;;;;;4968531;28;20055;-87
2021/10/26 05:14:05;;;;;;;15.20;8.55;;;9.90;84.60;;;;;;4958858;28;20052;-86
2021/10/26 05:16:33;;;;;;;18.00;8.95;;;9.90;84.60;;;;;;4962861;28;20054;-87
2021/10/26 05:19:02;;;;;;;14.63;8.77;;;9.90;84.60;;;;;;4965830;28;20082;-87
2021/10/26 05:21:29;;;;;;;16.67;8.77;;;9.90;84.60;;;;;;4966595;28;20420;-86
2021/10/26 05:23:56;;;;;;;20.33;9.60;;;9.90;84.60;;;;;;4968870;28;20051;-86
2021/10/26 05:26:24;;;;;;;17.95;9.23;;;9.90;84.60;;;;;;4967051;28;20057;-88
2021/10/26 05:28:51;;;;;;;18.02;9.57;;;9.90;84.60;;;;;;4969965;28;20121;-87
2021/10/26 05:31:19;;;;;;;20.08;9.48;;;9.90;84.50;;;;;;4965292;28;20050;-86
2021/10/26 05:33:46;;;;;;;16.50;9.18;;;9.90;84.50;;;;;;4966801;28;20051;-86
2021/10/26 05:36:13;;;;;;;15.65;9.18;;;9.90;84.50;;;;;;4972220;28;20046;-87
2021/10/26 05:38:40;;;;;;;15.38;9.65;;;9.80;84.50;;;;;;4972186;28;20046;-86
2021/10/26 05:41:10;;;;;;;17.55;9.80;;;9.80;84.50;;;;;;4970417;28;20090;-86
2021/10/26 05:43:41;;;;;;;15.80;9.77;;;9.90;84.50;;;;;;4967344;28;20593;-86
2021/10/26 05:46:09;;;;;;;15.38;9.43;;;9.80;84.50;;;;;;4968804;28;20050;-86
2021/10/26 05:48:36;;;;;;;20.55;10.77;;;9.80;84.50;;;;;;4969109;28;20467;-87
2021/10/26 05:51:04;;;;;;;16.33;9.80;;;9.80;84.50;;;;;;4973298;28;20420;-86
2021/10/26 05:53:32;;;;;;;20.88;10.32;;;9.80;84.40;;;;;;4971382;28;20055;-87
2021/10/26 05:56:00;;;;;;;17.40;9.90;;;9.80;84.50;;;;;;4968052;28;20047;-87
2021/10/26 05:58:28;;;;;;;21.95;10.75;;;9.70;84.40;;;;;;4968983;28;20051;-86
2021/10/26 06:00:55;;;;;;;20.92;11.30;;;9.80;84.50;;;;;;4968553;28;20138;-86
2021/10/26 06:03:22;;;;;;;22.17;11.27;;;9.70;84.50;;;;;;4968860;28;20126;-86
2021/10/26 06:05:49;;;;;;;17.08;11.73;;;9.70;84.40;;;;;;4971661;28;20054;-85
2021/10/26 06:08:16;;;;;;;19.38;11.80;;;9.70;84.40;;;;;;4970598;28;20067;-85
2021/10/26 06:10:45;;;;;;;19.60;12.30;;;9.70;84.40;;;;;;4968711;28;20109;-85
2021/10/26 06:13:14;;;;;;;16.83;12.30;;;9.70;84.50;;;;;;4968633;28;20499;-85
2021/10/26 06:15:42;;;;;;;17.25;12.02;;;9.70;84.50;;;;;;4968393;28;20467;-86
2021/10/26 06:18:13;;;;;;;17.17;12.18;;;9.70;84.50;;;;;;4968842;28;20075;-85
2021/10/26 06:20:40;;;;;;;19.67;13.00;;;9.70;84.50;;;;;;4967085;28;20515;-85
2021/10/26 06:23:07;;;;;;;17.55;12.77;;;9.60;84.50;;;;;;4965604;28;20047;-84
2021/10/26 06:25:34;;;;;;;17.10;12.75;;;9.60;84.60;;;;;;4964471;28;20054;-88
2021/10/26 06:28:01;;;;;;;19.98;13.55;;;9.60;84.60;;;;;;4964471;28;20046;-88
2021/10/26 06:30:28;;;;;;;21.25;13.60;;;9.60;84.60;;;;;;4970196;28;20055;-87
2021/10/26 06:32:55;;;;;;;24.30;15.18;;;9.60;84.70;;;;;;4973066;28;20109;-87
2021/10/26 06:35:22;;;;;;;18.38;14.07;;;9.60;84.70;;;;;;4971316;28;20495;-86
2021/10/26 06:37:49;;;;;;;19.25;13.85;;;9.60;84.70;;;;;;4969351;28;20062;-86
2021/10/26 06:40:20;;;;;;;20.67;14.50;;;9.60;84.70;;;;;;4965312;28;20046;-86
2021/10/26 06:42:47;;;;;;;22.13;14.65;;;9.60;84.80;;;;;;4969122;28;20393;-86
2021/10/26 06:45:14;;;;;;;22.73;15.25;;;9.60;84.80;;;;;;4971059;28;20055;-86
2021/10/26 06:47:41;;;;;;;22.45;15.38;;;9.60;84.80;;;;;;4971524;28;20479;-88
2021/10/26 06:50:10;;;;;;;22.25;15.35;;;9.70;84.90;;;;;;4970378;28;20106;-88
2021/10/26 06:52:37;;;;;;;22.42;15.43;;;9.70;84.90;;;;;;4968913;28;20082;-86
2021/10/26 06:55:05;;;;;;;24.05;16.27;;;9.70;84.90;;;;;;4967612;28;20057;-86
2021/10/26 06:57:32;;;;;;;22.05;15.05;;;9.70;85.00;;;;;;4969408;28;20059;-86
2021/10/26 07:00:00;;;;;;;26.00;17.02;;;9.70;85.00;;;;;;4971793;28;20047;-86
2021/10/26 07:02:27;;;;;;;24.60;16.45;;;9.70;85.00;;;;;;4969998;28;20051;-87
2021/10/26 07:05:01;;;;;;;27.90;16.98;;;9.70;85.10;;;;;;4967423;28;20435;-86
2021/10/26 07:07:28;;;;;;;23.70;15.75;;;9.70;85.10;;;;;;4968831;28;20460;-87
2021/10/26 07:09:55;;;;;;;24.58;16.42;;;9.70;85.10;;;;;;4968505;28;20062;-86
2021/10/26 07:12:22;;;;;;;23.25;15.45;;;9.70;85.10;;;;;;4970354;28;20058;-88
2021/10/26 07:14:49;;;;;;;21.00;15.70;;;9.70;85.10;;;;;;4972756;28;20043;-87
2021/10/26 07:17:16;;;;;;;22.98;15.88;;;9.70;85.20;;;;;;4968930;28;20109;-87
2021/10/26 07:19:43;;;;;;;23.50;16.08;;;9.80;85.20;;;;;;4969967;28;20054;-87
2021/10/26 07:22:10;;;;;;;26.38;16.55;;;9.80;85.30;;;;;;4966824;28;20054;-87
2021/10/26 07:24:37;;;;;;;22.15;15.90;;;9.80;85.30;;;;;;4968640;28;20488;-90
2021/10/26 07:27:05;;;;;;;21.85;15.23;;;9.80;85.30;;;;;;4972402;28;20055;-89
2021/10/26 07:29:32;;;;;;;22.33;15.55;;;9.80;85.30;;;;;;4970802;28;20047;-89
2021/10/26 07:31:59;;;;;;;21.77;14.45;;;9.90;85.30;;;;;;4967481;28;20117;-88
2021/10/26 07:34:26;;;;;;;24.92;14.80;;;9.90;85.40;;;;;;4966439;28;20506;-89
2021/10/26 07:36:53;;;;;;;26.70;15.35;;;9.90;85.40;;;;;;4968554;28;20464;-87
2021/10/26 07:41:56;;;;;;;22.55;15.10;;;9.90;85.40;;;;;;4968396;28;20051;-86
2021/10/26 07:44:23;;;;;;;25.42;14.68;;;9.90;85.40;;;;;;4970718;28;20055;-86
2021/10/26 07:46:50;;;;;;;25.58;16.23;;;9.90;85.50;;;;;;4961206;28;20052;-86
2021/10/26 07:49:17;;;;;;;22.52;15.02;;;9.90;85.50;;;;;;4960627;28;20055;-87
2021/10/26 07:51:44;;;;;;;23.60;14.70;;;10.00;85.50;;;;;;4969797;28;20051;-88
2021/10/26 07:54:12;;;;;;;25.15;14.85;;;10.00;85.60;;;;;;4955598;28;20051;-87
2021/10/26 07:56:39;;;;;;;25.17;15.05;;;10.00;85.60;;;;;;4955515;28;20056;-87
2021/10/26 07:59:05;;;;;;;25.33;14.77;;;10.00;85.60;;;;;;4958398;28;20518;-87
2021/10/26 08:01:33;;;;;;;27.17;15.23;;;10.10;85.60;;;;;;4958023;28;20079;-87
2021/10/26 08:04:00;;;;;;;27.40;15.88;;;10.10;85.70;;;;;;4957715;28;20447;-87
2021/10/26 08:06:27;;;;;;;24.92;14.25;;;10.10;85.70;;;;;;4959434;28;20439;-86
2021/10/26 08:08:54;;;;;;;23.33;13.95;;;10.10;85.70;;;;;;4955061;28;20051;-87
2021/10/26 08:11:21;;;;;;;26.02;14.48;;;10.20;85.70;;;;;;4959395;28;20051;-87
2021/10/26 08:13:48;;;;;;;23.50;14.35;;;10.20;85.70;;;;;;4959137;28;20114;-87
2021/10/26 08:16:15;;;;;;;26.80;14.05;;;10.20;85.80;;;;;;4960895;28;20499;-89
2021/10/26 08:18:45;;;;;;;24.85;13.80;;;10.20;85.80;;;;;;4968286;28;20054;-87
2021/10/26 08:21:14;;;;;;;24.15;14.30;;;10.30;85.80;;;;;;4956949;28;20106;-87
2021/10/26 08:23:42;;;;;;;25.90;13.20;;;10.30;85.80;;;;;;4956835;28;20051;-87
2021/10/26 08:26:15;;;;;;;20.63;13.60;;;10.30;85.80;;;;;;4966622;28;20055;-88
2021/10/26 08:28:42;;;;;;;27.65;15.15;;;10.30;85.90;;;;;;4967454;28;20447;-87
2021/10/26 08:31:23;;;;;;;25.88;14.02;;;10.40;85.90;;;;;;4967197;28;20043;-89
2021/10/26 08:36:29;;;;;;;24.00;12.98;;;10.40;86.00;;;;;;4967145;28;20051;-88
2021/10/26 08:38:56;;;;;;;22.40;12.63;;;10.40;86.00;;;;;;4970492;28;20081;-86
2021/10/26 08:41:26;;;;;;;24.08;12.85;;;10.50;86.00;;;;;;4964882;28;20057;-87
2021/10/26 08:43:53;;;;;;;20.75;12.45;;;10.50;86.00;;;;;;4960590;28;20114;-87
2021/10/26 08:46:21;;;;;;;26.02;12.02;;;10.50;86.10;;;;;;4957313;28;20043;-86
2021/10/26 08:48:50;;;;;;;27.83;12.55;;;10.60;86.10;;;;;;4958493;28;20054;-87
2021/10/26 08:51:18;;;;;;;20.95;11.93;;;10.60;86.20;;;;;;4954245;28;20039;-87
2021/10/26 08:53:45;;;;;;;20.30;12.38;;;10.70;86.30;;;;;;4954739;28;20545;-86
2021/10/26 08:56:12;;;;;;;23.55;11.50;;;10.70;86.30;;;;;;4958981;28;20051;-86
2021/10/26 08:58:39;;;;;;;21.73;11.05;;;10.70;86.30;;;;;;4956605;28;20059;-87
2021/10/26 09:01:11;;;;;;;21.00;11.50;;;10.80;86.40;;;;;;4958184;28;20051;-87
2021/10/26 09:03:39;;;;;;;24.80;10.30;;;10.80;86.40;;;;;;4956385;28;20053;-86
2021/10/26 09:06:08;;;;;;;21.08;9.95;;;10.90;86.40;;;;;;4952838;28;20043;-86
2021/10/26 09:08:35;;;;;;;20.13;11.25;;;10.90;86.50;;;;;;4956014;28;20054;-86
2021/10/26 09:16:48;;;;;;;18.25;9.35;;;11.10;86.50;;;;;;4961695;28;20110;-88
2021/10/26 09:19:18;;;;;;;20.63;8.88;;;11.20;86.50;;;;;;4960327;28;20110;-87
2021/10/26 09:21:56;;;;;;;21.52;7.65;;;11.30;86.60;;;;;;4961747;28;20039;-87
2021/10/26 09:24:24;;;;;;;21.00;7.95;;;11.40;86.60;;;;;;4956939;28;20051;-87
2021/10/26 09:26:55;;;;;;;18.27;7.78;;;11.40;86.60;;;;;;4972746;28;20051;-86
2021/10/26 09:29:39;;;;;;;15.85;7.05;;;11.50;86.60;;;;;;4971563;28;20203;-86
2021/10/26 09:32:22;;;;;;;14.88;6.57;;;11.60;86.70;;;;;;4958633;28;20487;-87
2021/10/26 09:34:58;;;;;;;18.48;6.93;;;11.80;86.60;;;;;;4966805;28;20105;-86
2021/10/26 09:37:32;;;;;;;14.10;6.07;;;11.90;86.60;;;;;;4969333;28;20057;-88
2021/10/26 09:40:00;;;;;;;17.15;6.35;;;12.00;86.50;;;;;;4968447;28;20047;-88
2021/10/26 09:42:37;;;;;;;11.63;5.68;;;12.20;86.30;;;;;;4970486;28;20051;-88
2021/10/26 09:45:05;;;;;;;17.55;5.05;;;12.30;86.20;;;;;;4958290;28;20526;-87
2021/10/26 09:47:37;;;;;;;15.35;4.93;;;12.40;86.10;;;;;;4971494;28;20058;-89
2021/10/26 09:50:07;;;;;;;18.17;4.32;;;12.50;85.90;;;;;;4968625;28;20058;-88
2021/10/26 09:52:43;;;;;;;12.23;4.45;;;12.70;85.80;;;;;;4967542;28;20471;-86
2021/10/26 09:55:18;;;;;;;15.07;4.38;;;12.90;85.60;;;;;;4969110;28;20565;-87
2021/10/26 09:57:57;;;;;;;17.25;4.30;;;12.90;85.30;;;;;;4968769;28;20578;-87
2021/10/26 10:00:38;;;;;;;15.05;4.00;;;13.10;85.20;;;;;;4970513;28;20054;-88
2021/10/26 10:03:16;;;;;;;12.82;4.13;;;13.30;84.90;;;;;;4957932;28;20053;-88
2021/10/26 10:05:50;;;;;;;9.85;3.70;;;13.40;84.70;;;;;;4972408;28;20084;-89
2021/10/26 10:08:17;;;;;;;;;;;13.60;84.40;;;;;;4959976;28;20051;-88
2021/10/26 10:10:44;;;;;;;17.90;3.65;;;13.70;84.20;;;;;;4965327;28;19922;-87
2021/10/26 10:13:13;;;;;;;14.48;4.65;;;13.90;83.90;;;;;;4963019;28;20130;-87
2021/10/26 10:15:49;;;;;;;14.95;3.40;;;13.90;83.70;;;;;;4958467;28;20053;-86
2021/10/26 10:18:19;;;;;;;12.98;3.60;;;14.10;83.40;;;;;;4971387;28;20047;-88
2021/10/26 10:20:51;;;;;;;12.10;3.20;;;14.20;83.10;;;;;;4970368;28;20059;-86
2021/10/26 10:23:19;;;;;;;13.82;3.28;;;14.30;82.70;;;;;;4959423;28;20102;-87
2021/10/26 10:25:47;;;;;;;12.73;2.95;;;14.40;82.40;;;;;;4965574;28;20054;-87
2021/10/26 10:28:17;;;;;;;9.90;3.22;;;14.40;82.10;;;;;;4968694;28;20511;-87
2021/10/26 10:30:44;;;;;;;13.68;3.00;;;14.50;81.80;;;;;;4968630;28;20051;-86
2021/10/26 10:33:11;;;;;;;18.50;3.53;;;14.60;81.50;;;;;;4971825;28;20546;-89
2021/10/26 10:35:40;;;;;;;10.98;3.28;;;14.70;81.20;;;;;;4970245;28;20050;-87
2021/10/26 10:38:07;;;;;;;10.50;2.72;;;14.70;81.00;;;;;;4969486;28;20059;-87
2021/10/26 10:40:36;;;;;;;13.15;2.75;;;14.80;80.80;;;;;;4968179;28;20058;-87
2021/10/26 10:43:03;;;;;;;8.38;2.80;;;14.90;80.50;;;;;;4968275;28;20054;-87
2021/10/26 10:45:34;;;;;;;9.35;2.90;;;14.90;80.30;;;;;;4968975;28;20055;-87
2021/10/26 10:48:20;;;;;;;14.48;2.83;;;14.90;80.20;;;;;;4955916;28;20043;-87
2021/10/26 10:51:11;;;;;;;10.65;2.60;;;15.10;80.00;;;;;;4970672;28;20097;-86
2021/10/26 10:53:40;;;;;;;8.40;3.00;;;15.20;79.80;;;;;;4970332;28;20042;-88
2021/10/26 10:56:20;;;;;;;18.38;3.10;;;15.20;79.70;;;;;;4969098;28;20047;-87
2021/10/26 10:58:50;;;;;;;9.88;2.80;;;15.30;79.50;;;;;;4967960;28;20050;-88
2021/10/26 11:01:31;;;;;;;12.07;2.80;;;15.30;79.40;;;;;;4967996;28;20046;-87
2021/10/26 11:03:59;;;;;;;13.15;3.03;;;15.30;79.20;;;;;;4967723;28;20133;-87
2021/10/26 11:06:41;;;;;;;12.80;3.25;;;15.30;79.10;;;;;;4968761;28;20043;-88
2021/10/26 11:09:31;;;;;;;13.70;3.22;;;15.40;78.90;;;;;;4956855;28;20051;-87
2021/10/26 11:12:20;;;;;;;14.57;3.55;;;15.30;78.70;;;;;;4971640;28;20554;-88
2021/10/26 11:15:03;;;;;;;11.40;3.28;;;15.30;78.60;;;;;;4970673;28;20046;-87
2021/10/26 11:20:05;;;;;;;6.57;2.60;;;15.30;78.50;;;;;;4966663;28;20079;-87
2021/10/26 11:22:51;;;;;;;11.02;2.90;;;15.30;78.50;;;;;;4959048;28;20047;-87
2021/10/26 11:25:46;;;;;;;9.38;2.80;;;15.30;78.60;;;;;;4962162;28;20047;-87
2021/10/26 11:28:15;;;;;;;9.85;2.75;;;15.30;78.60;;;;;;4967335;28;20051;-87
2021/10/26 11:30:42;;;;;;;9.05;2.88;;;15.30;78.60;;;;;;4967554;28;20047;-87
2021/10/26 11:33:09;;;;;;;12.85;3.30;;;15.30;78.60;;;;;;4969121;28;20423;-86
2021/10/26 11:36:12;;;;;;;9.95;3.38;;;15.30;78.60;;;;;;4969199;28;20043;-86
2021/10/26 11:38:46;;;;;;;10.25;2.90;;;15.30;78.50;;;;;;4970129;28;20057;-87
2021/10/26 11:41:16;;;;;;;12.80;3.42;;;15.30;78.40;;;;;;4958131;28;20058;-85
2021/10/26 11:43:45;;;;;;;7.68;2.40;;;15.30;78.40;;;;;;4963544;28;20063;-86
2021/10/26 11:46:16;;;;;;;9.25;2.45;;;15.30;78.30;;;;;;4967062;28;20050;-86
2021/10/26 11:48:59;;;;;;;11.52;2.80;;;15.30;78.20;;;;;;4966765;28;20051;-86
2021/10/26 11:51:35;;;;;;;12.35;3.10;;;15.30;78.20;;;;;;4968380;28;20102;-86
2021/10/26 11:54:09;;;;;;;9.70;2.97;;;15.20;78.10;;;;;;4954498;28;20419;-87
2021/10/26 11:56:42;;;;;;;12.10;2.97;;;15.20;78.20;;;;;;4969489;28;20046;-86
2021/10/26 11:59:10;;;;;;;13.35;3.58;;;15.20;78.20;;;;;;4967990;28;20058;-85
2021/10/26 12:01:46;;;;;;;11.75;2.83;;;15.20;78.20;;;;;;4966800;28;20590;-88
2021/10/26 12:04:25;;;;;;;11.48;3.17;;;15.10;78.20;;;;;;4966384;28;20061;-88
2021/10/26 12:06:56;;;;;;;8.75;2.72;;;15.10;78.20;;;;;;4966846;28;20043;-88
2021/10/26 12:09:24;;;;;;;9.73;2.92;;;15.10;78.20;;;;;;4968619;28;20058;-88
2021/10/26 12:11:53;;;;;;;8.63;2.95;;;15.00;78.20;;;;;;4969667;28;20054;-87
2021/10/26 12:14:23;;;;;;;9.18;2.97;;;15.00;78.30;;;;;;4967423;28;20050;-86
2021/10/26 12:17:04;;;;;;;13.48;3.70;;;14.90;78.30;;;;;;4966285;28;20047;-86
2021/10/26 12:19:43;;;;;;;15.05;3.38;;;14.90;78.30;;;;;;4966630;28;20050;-88
2021/10/26 12:22:16;;;;;;;9.82;2.92;;;14.90;78.40;;;;;;4966406;28;20511;-87
2021/10/26 12:24:52;;;;;;;8.67;3.50;;;14.90;78.40;;;;;;4966398;28;20051;-86
2021/10/26 12:27:24;;;;;;;14.40;3.83;;;14.90;78.50;;;;;;4968592;28;20047;-85
2021/10/26 12:29:51;;;;;;;7.95;3.10;;;14.80;78.50;;;;;;4968198;28;20109;-85
2021/10/26 12:32:21;;;;;;;10.68;3.45;;;14.80;78.50;;;;;;4967772;28;20121;-87
2021/10/26 12:34:49;;;;;;;10.65;3.35;;;14.70;78.60;;;;;;4964363;28;20047;-86
2021/10/26 12:37:20;;;;;;;13.48;3.38;;;14.70;78.70;;;;;;4966144;28;20047;-87
2021/10/26 12:39:52;;;;;;;8.88;3.28;;;14.70;78.70;;;;;;4966263;28;20066;-86
2021/10/26 12:42:31;;;;;;;10.82;3.95;;;14.60;78.80;;;;;;4968368;28;20460;-86
2021/10/26 12:44:57;;;;;;;10.07;3.55;;;14.60;78.90;;;;;;4969601;28;20054;-85
2021/10/26 12:47:29;;;;;;;8.98;3.65;;;14.60;79.00;;;;;;4956151;28;20047;-86
2021/10/26 12:49:57;;;;;;;11.40;3.15;;;14.50;79.10;;;;;;4965934;28;20059;-86
2021/10/26 12:52:24;;;;;;;11.55;4.75;;;14.50;79.30;;;;;;4964586;28;20097;-87
2021/10/26 12:54:52;;;;;;;11.30;3.63;;;14.40;79.40;;;;;;4966184;28;20054;-88
2021/10/26 12:57:35;;;;;;;10.50;3.50;;;14.40;79.60;;;;;;4970581;28;20054;-87
2021/10/26 13:00:21;;;;;;;11.60;3.90;;;14.40;79.70;;;;;;4953911;28;20050;-88
2021/10/26 13:02:48;;;;;;;13.63;3.67;;;14.40;79.80;;;;;;4968867;28;20102;-87